This demonstration page uses our WeatherBlox Daily Observations layout. Learn more.

38.89511, -77.03637

Hourly Observations for September 26, 2019

Temp ( °F °C ) Dew Point ( °F °C ) Humidity (%) Winds ( mph kmh ) Pressure ( in mb ) Visibility ( mi km ) Precip ( " mm )
12:52 am 00:52 Mostly Clear 68 20 58 14.4 70 70 S 7 11 29.85 1011 10 16.09344 0 0
1:52 am 01:52 Clear 68 20 59 15 73 73 SSE 7 11 29.85 1011 10 16.09344 0 0
2:52 am 02:52 Partly Cloudy 67 19.4 60 15.6 79 79 SSE 7 11 29.83 1010 10 16.09344 0 0
3:52 am 03:52 Partly Cloudy 66 18.9 60 15.6 81 81 SSW 6 9 29.83 1010 10 16.09344 0 0
4:52 am 04:52 Mostly Cloudy 66 18.9 60 15.6 81 81 SSW 6 9 29.83 1010 10 16.09344 0 0
5:52 am 05:52 Partly Cloudy 66 18.9 60 15.6 81 81 SW 6 9 29.8 1009 10 16.09344 0 0
6:52 am 06:52 Mostly Cloudy 65 18.3 60 15.6 84 84 SW 5 7 29.8 1009 10 16.09344 0 0
7:52 am 07:52 Mostly Cloudy 68 20 63 17.2 84 84 S 8 13 29.8 1009 10 16.09344 0 0
8:52 am 08:52 Mostly Cloudy 71 21.7 62 16.7 73 73 SSW 7 11 29.83 1010 10 16.09344 0 0
9:52 am 09:52 Mostly Cloudy 74 23.3 63 17.2 69 69 S 9 15 29.83 1010 10 16.09344 0 0
10:52 am 10:52 Mostly Sunny 76 24.4 64 17.8 67 67 S 7 11 29.8 1009 10 16.09344 0 0
11:52 am 11:52 Mostly Cloudy 80 26.7 64 17.8 58 58 SSE 6 9 29.8 1009 10 16.09344 0 0
12:52 pm 12:52 Mostly Cloudy 83 28.3 64 17.8 53 53 S 10 17 29.77 1008 10 16.09344 0 0
1:52 pm 13:52 Mostly Cloudy 84 28.9 63 17.2 49 49 S 9 15 29.77 1008 10 16.09344 0 0
2:52 pm 14:52 Mostly Cloudy 91 32.8 52 11.1 26 26 WSW 15 24 29.74 1007 10 16.09344 0 0
3:52 pm 15:52 Mostly Cloudy 91 32.8 57 13.9 32 32 WNW 7 11 29.74 1007 10 16.09344 0 0
4:52 pm 16:52 Cloudy 84 28.9 60 15.6 44 44 NNW 14 22 29.8 1009 10 16.09344 0 0
5:52 pm 17:52 Mostly Cloudy 83 28.3 62 16.7 49 49 N 10 17 29.8 1009 10 16.09344 0 0
6:52 pm 18:52 Mostly Cloudy 82 27.8 61 16.1 49 49 NNW 14 22 29.83 1010 10 16.09344 0 0
7:52 pm 19:52 Partly Cloudy 80 26.7 59 15 49 49 N 5 7 29.85 1011 10 16.09344 0 0
8:52 pm 20:52 Partly Cloudy 77 25 60 15.6 56 56 NNW 7 11 29.88 1012 10 16.09344 0 0
9:52 pm 21:52 Mostly Clear 75 23.9 57 13.9 54 54 NNW 9 15 29.91 1013 10 16.09344 0 0
10:52 pm 22:52 Partly Cloudy 73 22.8 58 14.4 59 59 N 8 13 29.94 1014 10 16.09344 0 0
11:52 pm 23:52 Mostly Clear 72 22.2 61 16.1 68 68 NNE 5 7 29.94 1014 10 16.09344 0 0

Powered by AerisWeather